createdAt,value
2018-03-16T00:00:29.658Z,7.40
2018-03-16T00:02:59.167Z,7.50
2018-03-16T00:05:28.190Z,7.50
2018-03-16T00:07:59.212Z,7.50
2018-03-16T00:10:27.725Z,7.50
2018-03-16T00:12:58.167Z,7.50
2018-03-16T00:15:28.872Z,7.50
2018-03-16T00:18:01.867Z,7.50
2018-03-16T00:20:29.445Z,7.50
2018-03-16T00:22:58.480Z,7.50
2018-03-16T00:25:27.970Z,7.50
2018-03-16T00:27:59.463Z,7.50
2018-03-16T00:30:30.426Z,7.50
2018-03-16T00:32:58.482Z,7.40
2018-03-16T00:35:33.917Z,7.40
2018-03-16T00:38:06.993Z,7.40
2018-03-16T00:40:35.013Z,7.40
2018-03-16T00:43:02.513Z,7.40
2018-03-16T00:45:38.864Z,7.40
2018-03-16T00:48:07.157Z,7.30
2018-03-16T00:50:34.678Z,7.30
2018-03-16T00:53:03.385Z,7.30
2018-03-16T00:55:30.906Z,7.20
2018-03-16T00:57:59.332Z,7.30
2018-03-16T01:00:29.284Z,7.30
2018-03-16T01:03:04.438Z,7.30
2018-03-16T01:05:31.954Z,7.30
2018-03-16T01:08:00.584Z,7.20
2018-03-16T01:10:28.107Z,7.20
2018-03-16T01:12:57.567Z,7.20
2018-03-16T01:15:33.444Z,7.10
2018-03-16T01:18:01.723Z,7.10
2018-03-16T01:20:35.870Z,7.10
2018-03-16T01:23:03.376Z,7.10
2018-03-16T01:25:30.909Z,7.10
2018-03-16T01:27:59.168Z,7.10
2018-03-16T01:30:28.130Z,7.10
2018-03-16T01:32:58.059Z,7.10
2018-03-16T01:35:27.940Z,7.10
2018-03-16T01:37:58.428Z,7.10
2018-03-16T01:40:30.515Z,7.10
2018-03-16T01:42:58.637Z,7.10
2018-03-16T01:45:28.551Z,7.00
2018-03-16T01:47:57.550Z,6.90
2018-03-16T01:50:27.298Z,6.90
2018-03-16T01:53:06.725Z,6.80
2018-03-16T01:55:34.266Z,6.80
2018-03-16T01:58:02.575Z,6.70
2018-03-16T02:00:30.066Z,6.70
2018-03-16T02:02:57.708Z,6.70
2018-03-16T02:05:29.666Z,6.70
2018-03-16T02:07:57.889Z,6.60
2018-03-16T02:10:26.858Z,6.70
2018-03-16T02:12:57.818Z,6.70
2018-03-16T02:15:28.227Z,6.70
2018-03-16T02:17:57.329Z,6.80
2018-03-16T02:20:36.673Z,6.80
2018-03-16T02:23:04.193Z,6.80
2018-03-16T02:25:32.489Z,6.80
2018-03-16T02:28:00.802Z,6.80
2018-03-16T02:30:28.358Z,6.80
2018-03-16T02:32:58.675Z,6.90
2018-03-16T02:35:27.724Z,6.90
2018-03-16T02:37:55.875Z,6.90
2018-03-16T02:40:28.705Z,6.90
2018-03-16T02:42:57.971Z,6.90
2018-03-16T02:45:30.696Z,6.90
2018-03-16T02:47:58.721Z,6.90
2018-03-16T02:50:28.250Z,6.80
2018-03-16T02:53:06.823Z,6.90
2018-03-16T02:55:35.088Z,6.80
2018-03-16T02:58:09.365Z,6.80
2018-03-16T03:00:37.426Z,6.80
2018-03-16T03:03:04.953Z,6.70
2018-03-16T03:05:32.466Z,6.70
2018-03-16T03:08:04.325Z,6.70
2018-03-16T03:10:33.529Z,6.60
2018-03-16T03:13:01.054Z,6.60
2018-03-16T03:15:29.319Z,6.70
2018-03-16T03:17:58.866Z,6.70
2018-03-16T03:20:28.849Z,6.90
2018-03-16T03:22:58.762Z,6.80
2018-03-16T03:25:28.990Z,6.90
2018-03-16T03:27:56.679Z,6.90
2018-03-16T03:30:27.928Z,6.80
2018-03-16T03:32:57.891Z,6.90
2018-03-16T03:35:31.046Z,6.90
2018-03-16T03:38:01.095Z,6.90
2018-03-16T03:40:28.918Z,7.00
2018-03-16T03:42:58.766Z,7.00
2018-03-16T03:45:28.845Z,7.10
2018-03-16T03:47:58.801Z,7.00
2018-03-16T03:50:28.839Z,7.00
2018-03-16T03:53:06.686Z,7.00
2018-03-16T03:55:34.205Z,7.00
2018-03-16T03:58:01.702Z,7.00
2018-03-16T04:00:29.289Z,7.00
2018-03-16T04:02:56.897Z,7.00
2018-03-16T04:05:28.710Z,7.00
2018-03-16T04:08:03.771Z,7.10
2018-03-16T04:10:31.305Z,7.10
2018-03-16T04:13:01.118Z,7.20
2018-03-16T04:15:29.185Z,7.20
2018-03-16T04:17:59.145Z,7.20
2018-03-16T04:20:28.853Z,7.20
2018-03-16T04:22:58.178Z,7.20
2018-03-16T04:25:28.905Z,7.20
2018-03-16T04:27:58.818Z,7.20
2018-03-16T04:30:28.785Z,7.20
2018-03-16T04:32:58.599Z,7.20
2018-03-16T04:35:28.963Z,7.20
2018-03-16T04:37:58.616Z,7.30
2018-03-16T04:40:34.803Z,7.20
2018-03-16T04:43:02.307Z,7.30
2018-03-16T04:45:29.830Z,7.30
2018-03-16T04:47:59.010Z,7.30
2018-03-16T04:50:27.814Z,7.30
2018-03-16T04:52:56.161Z,7.30
2018-03-16T04:55:28.726Z,7.30
2018-03-16T04:57:58.235Z,7.30
2018-03-16T05:00:28.884Z,7.30
2018-03-16T05:02:58.066Z,7.30
2018-03-16T05:05:38.549Z,7.30
2018-03-16T05:08:06.046Z,7.30
2018-03-16T05:10:33.554Z,7.30
2018-03-16T05:13:01.074Z,7.30
2018-03-16T05:15:28.578Z,7.30
2018-03-16T05:17:58.807Z,7.30
2018-03-16T05:20:28.264Z,7.40
2018-03-16T05:22:57.913Z,7.30
2018-03-16T05:25:29.107Z,7.30
2018-03-16T05:27:58.238Z,7.30
2018-03-16T05:30:30.764Z,7.40
2018-03-16T05:32:58.595Z,7.40
2018-03-16T05:35:28.227Z,7.40
2018-03-16T05:37:58.330Z,7.40
2018-03-16T05:40:29.241Z,7.40
2018-03-16T05:42:58.984Z,7.40
2018-03-16T05:45:28.345Z,7.40
2018-03-16T05:47:58.417Z,7.40
2018-03-16T05:50:33.451Z,7.40
2018-03-16T05:53:01.397Z,7.40
2018-03-16T05:55:29.665Z,7.50
2018-03-16T05:57:59.262Z,7.50
2018-03-16T06:00:29.257Z,7.50
2018-03-16T06:02:59.143Z,7.50
2018-03-16T06:05:29.290Z,7.50
2018-03-16T06:08:14.056Z,7.60
2018-03-16T06:10:42.986Z,7.60
2018-03-16T06:15:58.437Z,7.60
2018-03-16T06:18:29.211Z,7.60
2018-03-16T06:21:04.530Z,7.60
2018-03-16T06:23:32.812Z,7.60
2018-03-16T06:26:03.462Z,7.70
2018-03-16T06:28:31.190Z,7.60
2018-03-16T06:30:58.695Z,7.70
2018-03-16T06:33:27.129Z,7.70
2018-03-16T06:35:56.636Z,7.70
2018-03-16T06:38:25.053Z,7.80
2018-03-16T06:40:53.305Z,7.80
2018-03-16T06:43:24.470Z,7.90
2018-03-16T06:45:53.896Z,7.90
2018-03-16T06:48:23.626Z,7.90
2018-03-16T06:50:51.282Z,8.00
2018-03-16T06:53:19.603Z,8.10
2018-03-16T06:55:48.209Z,8.10
2018-03-16T06:58:18.343Z,8.20
2018-03-16T07:00:51.350Z,8.30
2018-03-16T07:03:19.699Z,8.30
2018-03-16T07:05:53.082Z,8.60
2018-03-16T07:08:20.594Z,8.50
2018-03-16T07:10:49.430Z,8.70
2018-03-16T07:13:19.239Z,8.80
2018-03-16T07:15:51.431Z,8.80
2018-03-16T07:18:19.266Z,8.80
2018-03-16T07:20:48.289Z,8.90
2018-03-16T07:23:20.071Z,9.00
2018-03-16T07:25:48.535Z,9.10
2018-03-16T07:28:18.005Z,9.30
2018-03-16T07:30:48.892Z,9.40
2018-03-16T07:33:18.346Z,9.40
2018-03-16T07:35:48.429Z,9.50
2018-03-16T07:38:27.359Z,9.50
2018-03-16T07:40:54.879Z,9.70
2018-03-16T07:43:22.385Z,9.80
2018-03-16T07:45:55.505Z,9.70
2018-03-16T07:48:23.897Z,9.70
2018-03-16T07:50:51.570Z,9.70
2018-03-16T07:53:19.843Z,9.70
2018-03-16T07:55:48.078Z,9.70
2018-03-16T07:58:18.365Z,9.80
2018-03-16T08:00:47.223Z,9.80
2018-03-16T08:03:16.184Z,10.00
2018-03-16T08:05:46.104Z,10.00
2018-03-16T08:08:15.041Z,10.00
2018-03-16T08:10:46.416Z,10.00
2018-03-16T08:13:15.239Z,10.30
2018-03-16T08:15:43.302Z,10.30
2018-03-16T08:18:12.293Z,10.40
2018-03-16T08:20:40.970Z,10.50
2018-03-16T08:23:10.469Z,10.40
2018-03-16T08:25:48.624Z,10.30
2018-03-16T08:28:17.723Z,10.10
2018-03-16T08:31:13.685Z,9.90
2018-03-16T08:33:43.969Z,9.80
2018-03-16T08:36:14.974Z,9.50
2018-03-16T08:38:43.677Z,9.50
2018-03-16T08:41:13.018Z,9.60
2018-03-16T08:43:42.241Z,9.40
2018-03-16T08:46:11.510Z,9.40
2018-03-16T08:48:40.141Z,9.50
2018-03-16T08:51:11.051Z,9.70
2018-03-16T08:53:43.137Z,9.70
2018-03-16T08:56:13.252Z,9.70
2018-03-16T08:58:45.119Z,9.80
2018-03-16T09:01:15.027Z,9.80
2018-03-16T09:03:44.270Z,9.70
2018-03-16T09:06:15.198Z,9.80
2018-03-16T09:08:47.726Z,9.80
2018-03-16T09:11:19.785Z,9.80
2018-03-16T09:13:59.158Z,9.80
2018-03-16T09:16:26.653Z,9.90
2018-03-16T09:18:54.169Z,10.10
2018-03-16T09:21:22.813Z,10.20
2018-03-16T09:23:51.415Z,10.30
2018-03-16T09:26:19.385Z,10.30
2018-03-16T09:28:50.858Z,10.20
2018-03-16T09:31:21.693Z,10.20
2018-03-16T09:33:51.832Z,10.20
2018-03-16T09:36:22.065Z,10.30
2018-03-16T09:38:50.069Z,10.30
2018-03-16T09:41:27.579Z,10.20
2018-03-16T09:43:56.915Z,10.30
2018-03-16T09:46:24.419Z,10.30
2018-03-16T09:48:52.697Z,10.40
2018-03-16T09:51:20.970Z,10.50
2018-03-16T09:53:50.039Z,10.80
2018-03-16T09:56:21.621Z,10.80
2018-03-16T09:58:49.240Z,11.00
2018-03-16T10:01:19.012Z,10.80
2018-03-16T10:03:51.827Z,10.80
2018-03-16T10:06:21.758Z,10.40
2018-03-16T10:08:52.020Z,10.40
2018-03-16T10:11:22.243Z,10.40
2018-03-16T10:13:50.031Z,10.20
2018-03-16T10:16:18.752Z,10.50
2018-03-16T10:18:46.985Z,10.70
2018-03-16T10:21:16.751Z,10.80
2018-03-16T10:23:51.505Z,10.40
2018-03-16T10:26:21.861Z,10.40
2018-03-16T10:28:49.720Z,10.40
2018-03-16T10:31:25.691Z,10.30
2018-03-16T10:33:53.993Z,9.80
2018-03-16T10:36:21.496Z,9.80
2018-03-16T10:38:52.031Z,9.70
2018-03-16T10:41:22.093Z,9.60
2018-03-16T10:43:52.032Z,9.80
2018-03-16T10:46:21.062Z,9.70
2018-03-16T10:48:52.074Z,9.70
2018-03-16T10:51:21.752Z,9.80
2018-03-16T10:53:51.599Z,9.60
2018-03-16T10:56:21.353Z,9.60
2018-03-16T10:58:49.378Z,9.70
2018-03-16T11:01:22.106Z,9.50
2018-03-16T11:03:56.319Z,9.50
2018-03-16T11:06:32.270Z,9.60
2018-03-16T11:08:59.766Z,9.50
2018-03-16T11:11:27.291Z,9.40
2018-03-16T11:13:54.799Z,9.30
2018-03-16T11:16:23.091Z,9.40
2018-03-16T11:18:51.354Z,9.40
2018-03-16T11:21:21.697Z,9.40
2018-03-16T11:23:51.217Z,9.60
2018-03-16T11:26:21.681Z,9.60
2018-03-16T11:28:52.162Z,9.30
2018-03-16T11:31:21.835Z,9.30
2018-03-16T11:34:01.201Z,9.00
2018-03-16T11:36:29.481Z,8.90
2018-03-16T11:38:57.746Z,8.80
2018-03-16T11:41:27.291Z,8.80
2018-03-16T11:43:54.791Z,8.60
2018-03-16T11:46:22.447Z,8.70
2018-03-16T11:48:52.073Z,8.60
2018-03-16T11:51:27.757Z,8.60
2018-03-16T11:53:55.262Z,8.60
2018-03-16T11:56:25.221Z,8.30
2018-03-16T11:58:52.738Z,8.20
2018-03-16T12:01:21.241Z,7.90
2018-03-16T12:03:52.081Z,7.90
2018-03-16T12:06:21.836Z,8.00
2018-03-16T12:08:51.589Z,8.00
2018-03-16T12:11:22.434Z,8.00
2018-03-16T12:13:50.034Z,8.00
2018-03-16T12:16:20.445Z,7.60
2018-03-16T12:18:47.962Z,7.60
2018-03-16T12:21:15.471Z,7.60
2018-03-16T12:23:43.762Z,7.50
2018-03-16T12:26:11.270Z,7.50
2018-03-16T12:28:49.753Z,7.50
2018-03-16T12:31:10.506Z,7.40
2018-03-16T12:33:40.169Z,7.40
2018-03-16T12:36:10.223Z,7.30
2018-03-16T12:38:40.388Z,7.20
2018-03-16T12:41:10.185Z,7.30
2018-03-16T12:43:39.234Z,7.20
2018-03-16T12:46:10.204Z,7.30
2018-03-16T12:48:39.205Z,7.30
2018-03-16T12:51:10.227Z,7.20
2018-03-16T12:53:40.439Z,7.20
2018-03-16T12:56:10.381Z,7.20
2018-03-16T12:58:40.034Z,7.20
2018-03-16T13:01:10.134Z,7.10
2018-03-16T13:03:40.063Z,7.20
2018-03-16T13:06:10.255Z,7.20
2018-03-16T13:08:44.349Z,7.20
2018-03-16T13:11:11.857Z,7.20
2018-03-16T13:13:39.641Z,7.30
2018-03-16T13:16:15.436Z,7.40
2018-03-16T13:18:42.951Z,7.40
2018-03-16T13:21:11.223Z,7.30
2018-03-16T13:23:40.499Z,7.30
2018-03-16T13:26:09.546Z,7.20
2018-03-16T13:28:40.073Z,7.20
2018-03-16T13:31:09.381Z,7.10
2018-03-16T13:33:39.625Z,7.10
2018-03-16T13:36:09.269Z,7.00
2018-03-16T13:38:40.494Z,7.00
2018-03-16T13:41:09.225Z,7.00
2018-03-16T13:43:40.213Z,7.00
2018-03-16T13:46:10.466Z,7.10
2018-03-16T13:48:46.073Z,7.00
2018-03-16T13:51:13.595Z,7.10
2018-03-16T13:53:41.107Z,7.20
2018-03-16T13:56:09.600Z,7.30
2018-03-16T13:58:39.578Z,7.30
2018-03-16T14:01:13.814Z,7.30
2018-03-16T14:03:41.322Z,7.20
2018-03-16T14:06:08.842Z,7.30
2018-03-16T14:08:39.747Z,7.30
2018-03-16T14:11:10.666Z,7.30
2018-03-16T14:13:44.107Z,7.30
2018-03-16T14:16:12.340Z,7.20
2018-03-16T14:18:40.601Z,7.10
2018-03-16T14:21:09.020Z,7.00
2018-03-16T14:23:39.362Z,6.90
2018-03-16T14:26:09.726Z,6.80
2018-03-16T14:28:39.778Z,6.80
2018-03-16T14:31:10.583Z,6.80
2018-03-16T14:33:42.982Z,6.70
2018-03-16T14:36:11.213Z,6.70
2018-03-16T14:38:40.924Z,6.70
2018-03-16T14:41:10.967Z,6.70
2018-03-16T14:43:40.641Z,6.60
2018-03-16T14:46:09.851Z,6.60
2018-03-16T14:48:40.444Z,6.60
2018-03-16T14:51:10.906Z,6.40
2018-03-16T14:53:39.856Z,6.40
2018-03-16T14:56:09.610Z,6.40
2018-03-16T14:58:37.959Z,6.50
2018-03-16T15:01:10.629Z,6.40
2018-03-16T15:03:40.659Z,6.40
2018-03-16T15:06:10.425Z,6.40
2018-03-16T15:08:40.024Z,6.40
2018-03-16T15:11:15.720Z,6.40
2018-03-16T15:13:43.226Z,6.30
2018-03-16T15:16:11.149Z,6.20
2018-03-16T15:18:40.927Z,6.10
2018-03-16T15:21:10.163Z,6.10
2018-03-16T15:23:39.858Z,6.10
2018-03-16T15:26:08.292Z,6.00
2018-03-16T15:28:40.782Z,5.80
2018-03-16T15:31:10.961Z,5.70
2018-03-16T15:33:39.795Z,5.80
2018-03-16T15:36:10.837Z,5.80
2018-03-16T15:38:40.973Z,5.80
2018-03-16T15:41:18.149Z,5.60
2018-03-16T15:43:48.199Z,5.70
2018-03-16T15:46:15.697Z,5.70
2018-03-16T15:48:43.219Z,5.60
2018-03-16T15:51:11.393Z,5.50
2018-03-16T15:53:41.533Z,5.60
2018-03-16T15:56:11.183Z,5.60
2018-03-16T15:58:41.025Z,5.40
2018-03-16T16:01:11.261Z,5.40
2018-03-16T16:03:41.390Z,5.10
2018-03-16T16:06:21.081Z,5.10
2018-03-16T16:08:49.367Z,5.20
2018-03-16T16:11:17.561Z,5.20
2018-03-16T16:13:45.851Z,5.20
2018-03-16T16:16:14.127Z,5.10
2018-03-16T16:18:41.643Z,5.10
2018-03-16T16:21:09.708Z,5.10
2018-03-16T16:23:39.429Z,5.20
2018-03-16T16:26:11.961Z,5.20
2018-03-16T16:28:40.848Z,5.20
2018-03-16T16:31:09.717Z,5.10
2018-03-16T16:33:40.497Z,5.10
2018-03-16T16:36:11.026Z,5.10
2018-03-16T16:38:40.471Z,5.10
2018-03-16T16:41:09.615Z,5.10
2018-03-16T16:43:39.799Z,5.00
2018-03-16T16:46:14.759Z,4.90
2018-03-16T16:48:42.290Z,4.80
2018-03-16T16:51:09.955Z,4.90
2018-03-16T16:53:40.275Z,4.80
2018-03-16T16:59:18.303Z,4.70
2018-03-16T17:01:45.809Z,4.70
2018-03-16T17:04:14.095Z,4.60
2018-03-16T17:06:42.357Z,4.60
2018-03-16T17:09:10.941Z,4.60
2018-03-16T17:11:40.256Z,4.50
2018-03-16T17:14:10.707Z,4.30
2018-03-16T17:16:40.847Z,4.30
2018-03-16T17:19:10.916Z,4.20
2018-03-16T17:21:40.719Z,4.20
2018-03-16T17:24:12.534Z,4.20
2018-03-16T17:26:41.251Z,3.90
2018-03-16T17:29:10.589Z,3.90
2018-03-16T17:31:40.172Z,3.70
2018-03-16T17:34:11.161Z,3.60
2018-03-16T17:36:40.737Z,3.60
2018-03-16T17:39:10.535Z,3.60
2018-03-16T17:41:40.150Z,3.60
2018-03-16T17:44:08.910Z,3.70
2018-03-16T17:46:39.294Z,3.70
2018-03-16T17:49:08.722Z,3.70
2018-03-16T17:51:39.656Z,3.70
2018-03-16T17:54:10.208Z,3.70
2018-03-16T17:56:40.114Z,3.70
2018-03-16T17:59:09.770Z,3.60
2018-03-16T18:01:47.669Z,3.60
2018-03-16T18:04:15.279Z,3.60
2018-03-16T18:06:42.807Z,3.60
2018-03-16T18:09:10.334Z,3.60
2018-03-16T18:11:39.219Z,3.50
2018-03-16T18:14:09.234Z,3.40
2018-03-16T18:16:39.682Z,3.30
2018-03-16T18:19:08.609Z,3.30
2018-03-16T18:21:37.199Z,3.30
2018-03-16T18:24:07.688Z,3.30
2018-03-16T18:26:38.851Z,3.30
2018-03-16T18:29:08.047Z,3.30
2018-03-16T18:31:37.258Z,3.30
2018-03-16T18:34:07.914Z,3.30
2018-03-16T18:36:37.786Z,3.10
2018-03-16T18:39:16.439Z,3.10
2018-03-16T18:41:43.957Z,3.10
2018-03-16T18:44:11.469Z,3.00
2018-03-16T18:46:41.033Z,2.80
2018-03-16T18:49:10.034Z,2.90
2018-03-16T18:51:38.766Z,2.80
2018-03-16T18:54:09.146Z,2.80
2018-03-16T18:56:39.159Z,2.70
2018-03-16T18:59:08.835Z,2.80
2018-03-16T19:01:37.925Z,2.80
2018-03-16T19:04:08.719Z,2.80
2018-03-16T19:06:40.182Z,2.80
2018-03-16T19:09:09.682Z,2.80
2018-03-16T19:11:38.942Z,2.80
2018-03-16T19:14:09.075Z,2.80
2018-03-16T19:16:55.283Z,2.70
2018-03-16T19:19:22.958Z,2.80
2018-03-16T19:21:51.223Z,2.80
2018-03-16T19:24:18.740Z,2.80
2018-03-16T19:26:46.311Z,2.70
2018-03-16T19:29:13.835Z,2.70
2018-03-16T19:31:41.525Z,2.70
2018-03-16T19:34:10.633Z,2.80
2018-03-16T19:36:39.312Z,2.80
2018-03-16T19:39:10.372Z,2.70
2018-03-16T19:41:50.315Z,2.70
2018-03-16T19:44:17.833Z,2.70
2018-03-16T19:46:45.346Z,2.70
2018-03-16T19:49:12.911Z,2.70
2018-03-16T19:51:41.077Z,2.70
2018-03-16T19:54:20.791Z,2.60
2018-03-16T19:56:48.293Z,2.60
2018-03-16T19:59:16.599Z,2.60
2018-03-16T20:01:44.878Z,2.60
2018-03-16T20:04:12.389Z,2.60
2018-03-16T20:06:41.245Z,2.70
2018-03-16T20:09:10.451Z,2.60
2018-03-16T20:11:50.273Z,2.60
2018-03-16T20:14:17.792Z,2.60
2018-03-16T20:16:45.312Z,2.50
2018-03-16T20:19:12.841Z,2.50
2018-03-16T20:21:40.670Z,2.50
2018-03-16T20:24:20.659Z,2.50
2018-03-16T20:26:48.162Z,2.50
2018-03-16T20:29:16.460Z,2.50
2018-03-16T20:31:44.732Z,2.40
2018-03-16T20:34:13.007Z,2.40
2018-03-16T20:36:41.498Z,2.40
2018-03-16T20:39:11.245Z,2.40
2018-03-16T20:41:41.427Z,2.40
2018-03-16T20:44:09.551Z,2.40
2018-03-16T20:46:49.595Z,2.30
2018-03-16T20:49:17.089Z,2.40
2018-03-16T20:51:44.613Z,2.40
2018-03-16T20:54:12.118Z,2.40
2018-03-16T20:56:41.074Z,2.30
2018-03-16T20:59:09.942Z,2.30
2018-03-16T21:01:39.514Z,2.30
2018-03-16T21:04:08.855Z,2.30
2018-03-16T21:06:38.219Z,2.20
2018-03-16T21:09:08.094Z,2.20
2018-03-16T21:11:40.450Z,2.20
2018-03-16T21:14:10.482Z,2.10
2018-03-16T21:16:39.506Z,2.00
2018-03-16T21:19:19.149Z,2.00
2018-03-16T21:21:46.668Z,2.00
2018-03-16T21:24:14.173Z,2.00
2018-03-16T21:26:41.688Z,2.00
2018-03-16T21:29:10.999Z,1.90
2018-03-16T21:31:40.180Z,2.00
2018-03-16T21:34:09.078Z,2.00
2018-03-16T21:36:39.948Z,1.90
2018-03-16T21:39:09.435Z,1.90
2018-03-16T21:41:39.566Z,1.90
2018-03-16T21:44:10.085Z,1.90
2018-03-16T21:46:40.566Z,2.00
2018-03-16T21:49:09.149Z,1.90
2018-03-16T21:51:39.086Z,1.90
2018-03-16T21:54:19.087Z,1.90
2018-03-16T21:56:46.651Z,1.90
2018-03-16T21:59:14.152Z,1.90
2018-03-16T22:01:41.668Z,1.90
2018-03-16T22:04:10.515Z,1.90
2018-03-16T22:06:39.677Z,1.80
2018-03-16T22:09:09.493Z,1.80
2018-03-16T22:11:47.385Z,1.80
2018-03-16T22:14:15.660Z,1.90
2018-03-16T22:16:43.153Z,1.90
2018-03-16T22:19:11.438Z,1.80
2018-03-16T22:21:41.186Z,1.80
2018-03-16T22:24:10.272Z,1.80
2018-03-16T22:26:39.561Z,1.80
2018-03-16T22:29:09.002Z,1.80
2018-03-16T22:31:41.163Z,1.80
2018-03-16T22:34:10.534Z,1.80
2018-03-16T22:36:40.730Z,1.80
2018-03-16T22:39:10.498Z,1.80
2018-03-16T22:41:40.172Z,1.80
2018-03-16T22:44:10.293Z,1.80
2018-03-16T22:46:39.902Z,1.80
2018-03-16T22:49:09.778Z,1.80
2018-03-16T22:51:39.577Z,1.80
2018-03-16T22:54:09.934Z,1.80
2018-03-16T22:56:50.015Z,1.80
2018-03-16T22:59:17.522Z,1.80
2018-03-16T23:01:45.034Z,1.80
2018-03-16T23:04:13.318Z,1.80
2018-03-16T23:06:41.592Z,1.80
2018-03-16T23:09:11.269Z,1.80
2018-03-16T23:11:40.619Z,1.80
2018-03-16T23:14:09.547Z,1.80
2018-03-16T23:16:39.953Z,1.80
2018-03-16T23:19:19.706Z,1.70
2018-03-16T23:21:47.218Z,1.70
2018-03-16T23:24:15.506Z,1.70
2018-03-16T23:26:43.782Z,1.60
2018-03-16T23:29:13.036Z,1.60
2018-03-16T23:31:41.486Z,1.60
2018-03-16T23:34:10.871Z,1.60
2018-03-16T23:36:50.758Z,1.60
2018-03-16T23:39:18.314Z,1.60
2018-03-16T23:41:45.833Z,1.60
2018-03-16T23:44:13.363Z,1.50
2018-03-16T23:46:41.815Z,1.50
2018-03-16T23:49:10.689Z,1.50
2018-03-16T23:51:39.937Z,1.40
2018-03-16T23:54:09.842Z,1.40
2018-03-16T23:56:39.659Z,1.30
2018-03-16T23:59:10.706Z,1.20
